sensor_id;sensor_type;location;lat;lon;timestamp;pressure;altitude;pressure_sealevel;temperature;humidity
51972;BME280;37991;49.662;10.060;2022-11-24T00:01:18;98468.41;;;5.36;100.00
51972;BME280;37991;49.662;10.060;2022-11-24T00:03:45;98470.78;;;5.39;100.00
51972;BME280;37991;49.662;10.060;2022-11-24T00:06:14;98470.50;;;5.44;100.00
51972;BME280;37991;49.662;10.060;2022-11-24T00:08:40;98474.56;;;5.48;100.00
51972;BME280;37991;49.662;10.060;2022-11-24T00:11:21;98479.88;;;5.46;100.00
51972;BME280;37991;49.662;10.060;2022-11-24T00:13:47;98481.53;;;5.47;100.00
51972;BME280;37991;49.662;10.060;2022-11-24T00:16:13;98482.28;;;5.49;100.00
51972;BME280;37991;49.662;10.060;2022-11-24T00:18:40;98480.50;;;5.50;100.00
51972;BME280;37991;49.662;10.060;2022-11-24T00:21:06;98481.44;;;5.49;100.00
51972;BME280;37991;49.662;10.060;2022-11-24T00:23:32;98480.72;;;5.47;100.00
51972;BME280;37991;49.662;10.060;2022-11-24T00:26:05;98485.72;;;5.50;100.00
51972;BME280;37991;49.662;10.060;2022-11-24T00:28:32;98481.44;;;5.49;100.00
51972;BME280;37991;49.662;10.060;2022-11-24T00:30:58;98482.63;;;5.57;100.00
51972;BME280;37991;49.662;10.060;2022-11-24T00:33:23;98494.69;;;5.58;100.00
51972;BME280;37991;49.662;10.060;2022-11-24T00:35:58;98497.28;;;5.58;100.00
51972;BME280;37991;49.662;10.060;2022-11-24T00:38:24;98493.84;;;5.58;100.00
51972;BME280;37991;49.662;10.060;2022-11-24T00:40:51;98498.00;;;5.60;100.00
51972;BME280;37991;49.662;10.060;2022-11-24T00:43:17;98496.25;;;5.61;100.00
51972;BME280;37991;49.662;10.060;2022-11-24T00:45:42;98503.31;;;5.59;100.00
51972;BME280;37991;49.662;10.060;2022-11-24T00:48:08;98501.56;;;5.59;100.00
51972;BME280;37991;49.662;10.060;2022-11-24T00:50:33;98504.34;;;5.56;100.00
51972;BME280;37991;49.662;10.060;2022-11-24T00:52:59;98505.16;;;5.57;100.00
51972;BME280;37991;49.662;10.060;2022-11-24T00:55:24;98506.13;;;5.56;100.00
51972;BME280;37991;49.662;10.060;2022-11-24T00:57:49;98511.50;;;5.53;100.00
51972;BME280;37991;49.662;10.060;2022-11-24T01:00:16;98509.91;;;5.50;100.00
51972;BME280;37991;49.662;10.060;2022-11-24T01:02:42;98511.25;;;5.43;100.00
51972;BME280;37991;49.662;10.060;2022-11-24T01:05:07;98515.59;;;5.43;100.00
51972;BME280;37991;49.662;10.060;2022-11-24T01:07:33;98511.50;;;5.39;100.00
51972;BME280;37991;49.662;10.060;2022-11-24T01:09:58;98522.19;;;5.34;100.00
51972;BME280;37991;49.662;10.060;2022-11-24T01:12:24;98529.22;;;5.32;100.00
51972;BME280;37991;49.662;10.060;2022-11-24T01:14:49;98526.94;;;5.27;100.00
51972;BME280;37991;49.662;10.060;2022-11-24T01:17:15;98527.50;;;5.18;100.00
51972;BME280;37991;49.662;10.060;2022-11-24T01:19:40;98538.88;;;5.16;100.00
51972;BME280;37991;49.662;10.060;2022-11-24T01:22:05;98533.06;;;5.12;100.00
51972;BME280;37991;49.662;10.060;2022-11-24T01:24:31;98536.59;;;5.11;100.00
51972;BME280;37991;49.662;10.060;2022-11-24T01:26:56;98538.25;;;5.12;100.00
51972;BME280;37991;49.662;10.060;2022-11-24T01:29:22;98540.91;;;5.10;100.00
51972;BME280;37991;49.662;10.060;2022-11-24T01:31:47;98539.06;;;5.12;100.00
51972;BME280;37991;49.662;10.060;2022-11-24T01:34:12;98554.47;;;5.16;100.00
51972;BME280;37991;49.662;10.060;2022-11-24T01:36:38;98553.47;;;5.18;100.00
51972;BME280;37991;49.662;10.060;2022-11-24T01:39:04;98557.63;;;5.21;100.00
51972;BME280;37991;49.662;10.060;2022-11-24T01:41:29;98561.72;;;5.25;100.00
51972;BME280;37991;49.662;10.060;2022-11-24T01:43:55;98562.34;;;5.28;100.00
51972;BME280;37991;49.662;10.060;2022-11-24T01:46:36;98565.69;;;5.30;100.00
51972;BME280;37991;49.662;10.060;2022-11-24T01:51:35;98564.94;;;5.28;100.00
51972;BME280;37991;49.662;10.060;2022-11-24T01:54:04;98578.69;;;5.30;100.00
51972;BME280;37991;49.662;10.060;2022-11-24T01:56:34;98572.47;;;5.33;100.00
51972;BME280;37991;49.662;10.060;2022-11-24T01:59:02;98579.34;;;5.34;100.00
51972;BME280;37991;49.662;10.060;2022-11-24T02:01:29;98582.75;;;5.34;100.00
51972;BME280;37991;49.662;10.060;2022-11-24T02:03:57;98576.75;;;5.34;100.00
51972;BME280;37991;49.662;10.060;2022-11-24T02:06:26;98587.03;;;5.35;100.00
51972;BME280;37991;49.662;10.060;2022-11-24T02:09:04;98587.97;;;5.34;100.00
51972;BME280;37991;49.662;10.060;2022-11-24T02:11:35;98593.78;;;5.38;100.00
51972;BME280;37991;49.662;10.060;2022-11-24T02:14:03;98593.53;;;5.43;100.00
51972;BME280;37991;49.662;10.060;2022-11-24T02:16:29;98596.13;;;5.43;100.00
51972;BME280;37991;49.662;10.060;2022-11-24T02:18:54;98594.19;;;5.46;100.00
51972;BME280;37991;49.662;10.060;2022-11-24T02:21:20;98588.88;;;5.48;100.00
51972;BME280;37991;49.662;10.060;2022-11-24T02:24:06;98592.13;;;5.51;100.00
51972;BME280;37991;49.662;10.060;2022-11-24T02:26:43;98595.16;;;5.58;100.00
51972;BME280;37991;49.662;10.060;2022-11-24T02:29:10;98595.94;;;5.60;100.00
51972;BME280;37991;49.662;10.060;2022-11-24T02:31:39;98600.94;;;5.63;100.00
51972;BME280;37991;49.662;10.060;2022-11-24T02:34:05;98602.22;;;5.70;100.00
51972;BME280;37991;49.662;10.060;2022-11-24T02:36:31;98609.63;;;5.76;100.00
51972;BME280;37991;49.662;10.060;2022-11-24T02:38:56;98614.91;;;5.89;100.00
51972;BME280;37991;49.662;10.060;2022-11-24T02:41:24;98610.38;;;5.93;100.00
51972;BME280;37991;49.662;10.060;2022-11-24T02:43:55;98610.94;;;5.98;100.00
51972;BME280;37991;49.662;10.060;2022-11-24T02:46:22;98616.78;;;6.01;100.00
51972;BME280;37991;49.662;10.060;2022-11-24T02:48:47;98619.09;;;6.06;100.00
51972;BME280;37991;49.662;10.060;2022-11-24T02:51:13;98610.81;;;6.14;100.00
51972;BME280;37991;49.662;10.060;2022-11-24T02:53:38;98613.31;;;6.15;100.00
51972;BME280;37991;49.662;10.060;2022-11-24T02:56:04;98616.66;;;6.17;100.00
51972;BME280;37991;49.662;10.060;2022-11-24T02:58:29;98617.28;;;6.21;100.00
51972;BME280;37991;49.662;10.060;2022-11-24T03:00:55;98618.94;;;6.22;100.00
51972;BME280;37991;49.662;10.060;2022-11-24T03:03:21;98618.75;;;6.25;100.00
51972;BME280;37991;49.662;10.060;2022-11-24T03:05:47;98621.34;;;6.25;100.00
51972;BME280;37991;49.662;10.060;2022-11-24T03:08:13;98625.84;;;6.23;100.00
51972;BME280;37991;49.662;10.060;2022-11-24T03:10:38;98618.75;;;6.25;100.00
51972;BME280;37991;49.662;10.060;2022-11-24T03:13:04;98616.91;;;6.27;100.00
51972;BME280;37991;49.662;10.060;2022-11-24T03:15:29;98623.03;;;6.26;100.00
51972;BME280;37991;49.662;10.060;2022-11-24T03:17:55;98626.66;;;6.23;100.00
51972;BME280;37991;49.662;10.060;2022-11-24T03:20:23;98633.66;;;6.23;100.00
51972;BME280;37991;49.662;10.060;2022-11-24T03:22:48;98638.22;;;6.19;100.00
51972;BME280;37991;49.662;10.060;2022-11-24T03:25:14;98633.66;;;6.23;100.00
51972;BME280;37991;49.662;10.060;2022-11-24T03:27:39;98631.03;;;6.23;100.00
51972;BME280;37991;49.662;10.060;2022-11-24T03:30:06;98637.06;;;6.23;100.00
51972;BME280;37991;49.662;10.060;2022-11-24T03:32:31;98629.16;;;6.25;100.00
51972;BME280;37991;49.662;10.060;2022-11-24T03:34:57;98640.31;;;6.27;100.00
51972;BME280;37991;49.662;10.060;2022-11-24T03:37:22;98635.00;;;6.28;100.00
51972;BME280;37991;49.662;10.060;2022-11-24T03:39:48;98636.06;;;6.26;100.00
51972;BME280;37991;49.662;10.060;2022-11-24T03:42:13;98641.16;;;6.27;100.00
51972;BME280;37991;49.662;10.060;2022-11-24T03:44:39;98638.72;;;6.24;100.00
51972;BME280;37991;49.662;10.060;2022-11-24T03:47:04;98639.13;;;6.18;100.00
51972;BME280;37991;49.662;10.060;2022-11-24T03:49:29;98638.41;;;6.16;100.00
51972;BME280;37991;49.662;10.060;2022-11-24T03:51:55;98642.66;;;6.17;100.00
51972;BME280;37991;49.662;10.060;2022-11-24T03:54:21;98648.16;;;6.13;100.00
51972;BME280;37991;49.662;10.060;2022-11-24T03:56:46;98646.41;;;6.13;100.00
51972;BME280;37991;49.662;10.060;2022-11-24T03:59:12;98651.78;;;6.10;100.00
51972;BME280;37991;49.662;10.060;2022-11-24T04:01:37;98660.06;;;6.02;100.00
51972;BME280;37991;49.662;10.060;2022-11-24T04:04:02;98653.28;;;6.00;100.00
51972;BME280;37991;49.662;10.060;2022-11-24T04:06:28;98653.91;;;5.89;100.00
51972;BME280;37991;49.662;10.060;2022-11-24T04:08:53;98650.84;;;5.82;100.00
51972;BME280;37991;49.662;10.060;2022-11-24T04:11:18;98648.44;;;5.79;100.00
51972;BME280;37991;49.662;10.060;2022-11-24T04:14:02;98648.63;;;5.76;100.00
51972;BME280;37991;49.662;10.060;2022-11-24T04:16:28;98654.84;;;5.74;100.00
51972;BME280;37991;49.662;10.060;2022-11-24T04:18:53;98656.78;;;5.70;100.00
51972;BME280;37991;49.662;10.060;2022-11-24T04:21:19;98656.44;;;5.62;100.00
51972;BME280;37991;49.662;10.060;2022-11-24T04:23:45;98664.25;;;5.62;100.00
51972;BME280;37991;49.662;10.060;2022-11-24T04:26:11;98664.50;;;5.57;100.00
51972;BME280;37991;49.662;10.060;2022-11-24T04:28:36;98672.28;;;5.57;100.00
51972;BME280;37991;49.662;10.060;2022-11-24T04:31:03;98679.25;;;5.57;100.00
51972;BME280;37991;49.662;10.060;2022-11-24T04:33:29;98685.47;;;5.54;100.00
51972;BME280;37991;49.662;10.060;2022-11-24T04:35:54;98693.19;;;5.56;100.00
51972;BME280;37991;49.662;10.060;2022-11-24T04:38:20;98695.97;;;5.53;100.00
51972;BME280;37991;49.662;10.060;2022-11-24T04:40:45;98702.19;;;5.50;100.00
51972;BME280;37991;49.662;10.060;2022-11-24T04:43:10;98713.50;;;5.49;100.00
51972;BME280;37991;49.662;10.060;2022-11-24T04:45:36;98707.47;;;5.49;100.00
51972;BME280;37991;49.662;10.060;2022-11-24T04:48:02;98715.44;;;5.46;100.00
51972;BME280;37991;49.662;10.060;2022-11-24T04:50:27;98728.44;;;5.46;100.00
51972;BME280;37991;49.662;10.060;2022-11-24T04:52:53;98724.16;;;5.45;100.00
51972;BME280;37991;49.662;10.060;2022-11-24T04:55:18;98717.47;;;5.41;100.00
51972;BME280;37991;49.662;10.060;2022-11-24T04:57:44;98731.13;;;5.44;100.00
51972;BME280;37991;49.662;10.060;2022-11-24T05:00:09;98725.84;;;5.46;100.00
51972;BME280;37991;49.662;10.060;2022-11-24T05:02:35;98739.66;;;5.46;100.00
51972;BME280;37991;49.662;10.060;2022-11-24T05:05:01;98734.72;;;5.42;100.00
51972;BME280;37991;49.662;10.060;2022-11-24T05:07:26;98728.63;;;5.43;100.00
51972;BME280;37991;49.662;10.060;2022-11-24T05:09:51;98728.63;;;5.43;100.00
51972;BME280;37991;49.662;10.060;2022-11-24T05:12:35;98725.34;;;5.39;100.00
51972;BME280;37991;49.662;10.060;2022-11-24T05:15:02;98738.31;;;5.39;100.00
51972;BME280;37991;49.662;10.060;2022-11-24T05:17:30;98738.44;;;5.38;100.00
51972;BME280;37991;49.662;10.060;2022-11-24T05:19:56;98738.44;;;5.38;100.00
51972;BME280;37991;49.662;10.060;2022-11-24T05:22:22;98738.25;;;5.41;100.00
51972;BME280;37991;49.662;10.060;2022-11-24T05:24:47;98739.84;;;5.43;100.00
51972;BME280;37991;49.662;10.060;2022-11-24T05:27:12;98733.53;;;5.47;100.00
51972;BME280;37991;49.662;10.060;2022-11-24T05:29:38;98735.78;;;5.53;100.00
51972;BME280;37991;49.662;10.060;2022-11-24T05:32:03;98739.03;;;5.57;100.00
51972;BME280;37991;49.662;10.060;2022-11-24T05:34:29;98734.00;;;5.54;100.00
51972;BME280;37991;49.662;10.060;2022-11-24T05:36:58;98741.72;;;5.55;100.00
51972;BME280;37991;49.662;10.060;2022-11-24T05:39:30;98752.19;;;5.54;100.00
51972;BME280;37991;49.662;10.060;2022-11-24T05:41:56;98745.16;;;5.56;100.00
51972;BME280;37991;49.662;10.060;2022-11-24T05:44:21;98757.38;;;5.54;100.00
51972;BME280;37991;49.662;10.060;2022-11-24T05:46:46;98755.56;;;5.56;100.00
51972;BME280;37991;49.662;10.060;2022-11-24T05:49:11;98762.34;;;5.58;100.00
51972;BME280;37991;49.662;10.060;2022-11-24T05:51:37;98763.47;;;5.69;100.00
51972;BME280;37991;49.662;10.060;2022-11-24T05:54:02;98769.38;;;5.71;100.00
51972;BME280;37991;49.662;10.060;2022-11-24T05:56:28;98767.25;;;5.77;100.00
51972;BME280;37991;49.662;10.060;2022-11-24T05:58:53;98767.75;;;5.84;100.00
51972;BME280;37991;49.662;10.060;2022-11-24T06:01:19;98766.53;;;5.90;100.00
51972;BME280;37991;49.662;10.060;2022-11-24T06:03:44;98755.06;;;5.94;100.00
51972;BME280;37991;49.662;10.060;2022-11-24T06:06:10;98758.22;;;5.99;100.00
51972;BME280;37991;49.662;10.060;2022-11-24T06:08:35;98753.75;;;6.01;100.00
51972;BME280;37991;49.662;10.060;2022-11-24T06:11:00;98758.78;;;6.04;100.00
51972;BME280;37991;49.662;10.060;2022-11-24T06:13:42;98757.84;;;6.05;100.00
51972;BME280;37991;49.662;10.060;2022-11-24T06:16:08;98762.22;;;6.04;100.00
51972;BME280;37991;49.662;10.060;2022-11-24T06:18:33;98756.19;;;6.04;100.00
51972;BME280;37991;49.662;10.060;2022-11-24T06:21:01;98769.06;;;6.05;100.00
51972;BME280;37991;49.662;10.060;2022-11-24T06:23:27;98771.31;;;6.12;100.00
51972;BME280;37991;49.662;10.060;2022-11-24T06:25:52;98763.50;;;6.12;100.00
51972;BME280;37991;49.662;10.060;2022-11-24T06:28:18;98776.31;;;6.15;100.00
51972;BME280;37991;49.662;10.060;2022-11-24T06:30:43;98770.28;;;6.14;100.00
51972;BME280;37991;49.662;10.060;2022-11-24T06:33:08;98766.75;;;6.15;100.00
51972;BME280;37991;49.662;10.060;2022-11-24T06:35:34;98766.75;;;6.15;100.00
51972;BME280;37991;49.662;10.060;2022-11-24T06:37:59;98772.59;;;6.19;100.00
51972;BME280;37991;49.662;10.060;2022-11-24T06:40:24;98774.19;;;6.21;100.00
51972;BME280;37991;49.662;10.060;2022-11-24T06:42:50;98770.56;;;6.24;100.00
51972;BME280;37991;49.662;10.060;2022-11-24T06:45:16;98774.00;;;6.24;100.00
51972;BME280;37991;49.662;10.060;2022-11-24T06:47:42;98773.81;;;6.27;100.00
51972;BME280;37991;49.662;10.060;2022-11-24T06:50:08;98775.78;;;6.38;100.00
51972;BME280;37991;49.662;10.060;2022-11-24T06:52:34;98778.91;;;6.43;100.00
51972;BME280;37991;49.662;10.060;2022-11-24T06:55:00;98779.72;;;6.44;100.00
51972;BME280;37991;49.662;10.060;2022-11-24T06:57:26;98789.25;;;6.45;100.00
51972;BME280;37991;49.662;10.060;2022-11-24T06:59:53;98787.34;;;6.47;100.00
51972;BME280;37991;49.662;10.060;2022-11-24T07:02:18;98790.72;;;6.49;100.00
51972;BME280;37991;49.662;10.060;2022-11-24T07:04:44;98794.25;;;6.48;100.00
51972;BME280;37991;49.662;10.060;2022-11-24T07:07:09;98788.00;;;6.50;100.00
51972;BME280;37991;49.662;10.060;2022-11-24T07:09:34;98788.94;;;6.49;100.00
51972;BME280;37991;49.662;10.060;2022-11-24T07:12:00;98794.91;;;6.51;100.00
51972;BME280;37991;49.662;10.060;2022-11-24T07:14:26;98792.28;;;6.51;100.00
51972;BME280;37991;49.662;10.060;2022-11-24T07:16:51;98793.00;;;6.53;100.00
51972;BME280;37991;49.662;10.060;2022-11-24T07:19:17;98800.81;;;6.53;100.00
51972;BME280;37991;49.662;10.060;2022-11-24T07:21:42;98809.38;;;6.56;100.00
51972;BME280;37991;49.662;10.060;2022-11-24T07:24:08;98803.34;;;6.55;100.00
51972;BME280;37991;49.662;10.060;2022-11-24T07:26:33;98804.47;;;6.51;100.00
51972;BME280;37991;49.662;10.060;2022-11-24T07:29:02;98803.72;;;6.49;100.00
51972;BME280;37991;49.662;10.060;2022-11-24T07:31:28;98812.66;;;6.45;100.00
51972;BME280;37991;49.662;10.060;2022-11-24T07:33:54;98815.91;;;6.48;100.00
51972;BME280;37991;49.662;10.060;2022-11-24T07:36:19;98814.88;;;6.51;100.00
51972;BME280;37991;49.662;10.060;2022-11-24T07:38:45;98823.59;;;6.50;100.00
51972;BME280;37991;49.662;10.060;2022-11-24T07:41:12;98822.78;;;6.49;100.00
51972;BME280;37991;49.662;10.060;2022-11-24T07:43:38;98831.22;;;6.53;100.00
51972;BME280;37991;49.662;10.060;2022-11-24T07:46:05;98831.03;;;6.56;100.00
51972;BME280;37991;49.662;10.060;2022-11-24T07:48:31;98838.75;;;6.58;100.00
51972;BME280;37991;49.662;10.060;2022-11-24T07:51:00;98838.47;;;6.62;100.00
51972;BME280;37991;49.662;10.060;2022-11-24T07:53:27;98836.63;;;6.64;100.00
51972;BME280;37991;49.662;10.060;2022-11-24T07:55:53;98833.81;;;6.67;100.00
51972;BME280;37991;49.662;10.060;2022-11-24T07:58:20;98843.00;;;6.73;100.00
51972;BME280;37991;49.662;10.060;2022-11-24T08:00:45;98842.91;;;6.74;100.00
51972;BME280;37991;49.662;10.060;2022-11-24T08:03:11;98843.66;;;6.77;100.00
51972;BME280;37991;49.662;10.060;2022-11-24T08:05:36;98848.69;;;6.80;100.00
51972;BME280;37991;49.662;10.060;2022-11-24T08:08:02;98847.09;;;6.77;100.00
51972;BME280;37991;49.662;10.060;2022-11-24T08:10:27;98853.88;;;6.80;100.00
51972;BME280;37991;49.662;10.060;2022-11-24T08:12:52;98857.03;;;6.85;100.00
51972;BME280;37991;49.662;10.060;2022-11-24T08:15:18;98867.44;;;6.85;100.00
51972;BME280;37991;49.662;10.060;2022-11-24T08:17:43;98861.28;;;6.86;100.00
51972;BME280;37991;49.662;10.060;2022-11-24T08:20:09;98856.75;;;6.89;100.00
51972;BME280;37991;49.662;10.060;2022-11-24T08:22:34;98863.91;;;6.86;100.00
51972;BME280;37991;49.662;10.060;2022-11-24T08:25:00;98869.97;;;6.86;100.00
51972;BME280;37991;49.662;10.060;2022-11-24T08:27:25;98863.72;;;6.89;100.00
51972;BME280;37991;49.662;10.060;2022-11-24T08:29:51;98867.25;;;6.88;100.00
51972;BME280;37991;49.662;10.060;2022-11-24T08:32:16;98871.63;;;6.87;100.00
51972;BME280;37991;49.662;10.060;2022-11-24T08:34:41;98877.66;;;6.88;100.00
51972;BME280;37991;49.662;10.060;2022-11-24T08:37:07;98864.84;;;6.85;100.00
51972;BME280;37991;49.662;10.060;2022-11-24T08:39:32;98865.66;;;6.85;100.00
51972;BME280;37991;49.662;10.060;2022-11-24T08:41:58;98878.50;;;6.88;100.00
51972;BME280;37991;49.662;10.060;2022-11-24T08:44:24;98871.63;;;6.87;100.00
51972;BME280;37991;49.662;10.060;2022-11-24T08:46:49;98877.66;;;6.88;100.00
51972;BME280;37991;49.662;10.060;2022-11-24T08:49:15;98869.78;;;6.89;100.00
51972;BME280;37991;49.662;10.060;2022-11-24T08:51:41;98871.53;;;6.89;100.00
51972;BME280;37991;49.662;10.060;2022-11-24T08:54:08;98876.53;;;6.92;100.00
51972;BME280;37991;49.662;10.060;2022-11-24T08:56:34;98872.28;;;6.91;100.00
51972;BME280;37991;49.662;10.060;2022-11-24T08:59:00;98878.94;;;6.95;100.00
51972;BME280;37991;49.662;10.060;2022-11-24T09:01:26;98877.00;;;6.98;100.00
51972;BME280;37991;49.662;10.060;2022-11-24T09:03:52;98878.13;;;6.94;100.00
51972;BME280;37991;49.662;10.060;2022-11-24T09:06:21;98887.72;;;6.94;100.00
51972;BME280;37991;49.662;10.060;2022-11-24T09:08:50;98885.75;;;6.97;100.00
51972;BME280;37991;49.662;10.060;2022-11-24T09:11:16;98884.91;;;6.97;100.00
51972;BME280;37991;49.662;10.060;2022-11-24T09:13:42;98889.09;;;6.99;100.00
51972;BME280;37991;49.662;10.060;2022-11-24T09:16:10;98890.56;;;7.04;100.00
51972;BME280;37991;49.662;10.060;2022-11-24T09:18:36;98887.41;;;6.98;100.00
51972;BME280;37991;49.662;10.060;2022-11-24T09:21:15;98891.41;;;7.04;100.00
51972;BME280;37991;49.662;10.060;2022-11-24T09:23:42;98900.03;;;7.05;100.00
51972;BME280;37991;49.662;10.060;2022-11-24T09:26:12;98891.03;;;7.10;100.00
51972;BME280;37991;49.662;10.060;2022-11-24T09:28:39;98891.97;;;7.09;100.00
51972;BME280;37991;49.662;10.060;2022-11-24T09:31:07;98890.28;;;7.08;100.00
51972;BME280;37991;49.662;10.060;2022-11-24T09:33:33;98897.91;;;7.11;100.00
51972;BME280;37991;49.662;10.060;2022-11-24T09:35:59;98901.16;;;7.15;100.00
51972;BME280;37991;49.662;10.060;2022-11-24T09:38:24;98901.81;;;7.18;100.00
51972;BME280;37991;49.662;10.060;2022-11-24T09:40:51;98905.25;;;7.19;100.00
51972;BME280;37991;49.662;10.060;2022-11-24T09:43:39;98905.97;;;7.21;100.00
51972;BME280;37991;49.662;10.060;2022-11-24T09:46:19;98910.34;;;7.20;100.00
51972;BME280;37991;49.662;10.060;2022-11-24T09:48:49;98909.50;;;7.20;100.00
51972;BME280;37991;49.662;10.060;2022-11-24T09:51:19;98915.56;;;7.20;100.00
51972;BME280;37991;49.662;10.060;2022-11-24T09:54:17;98921.59;;;7.21;100.00
51972;BME280;37991;49.662;10.060;2022-11-24T09:56:44;98923.19;;;7.23;100.00
51972;BME280;37991;49.662;10.060;2022-11-24T09:59:19;98928.19;;;7.27;100.00
51972;BME280;37991;49.662;10.060;2022-11-24T10:01:47;98923.53;;;7.32;100.00
51972;BME280;37991;49.662;10.060;2022-11-24T10:04:28;98926.69;;;7.37;100.00
51972;BME280;37991;49.662;10.060;2022-11-24T10:07:07;98931.50;;;7.43;100.00
51972;BME280;37991;49.662;10.060;2022-11-24T10:10:05;98929.53;;;7.46;100.00
51972;BME280;37991;49.662;10.060;2022-11-24T10:18:35;98942.84;;;7.56;100.00
51972;BME280;37991;49.662;10.060;2022-11-24T10:21:50;98940.13;;;7.58;100.00
51972;BME280;37991;49.662;10.060;2022-11-24T10:24:49;98940.88;;;7.60;100.00
51972;BME280;37991;49.662;10.060;2022-11-24T10:27:29;98949.84;;;7.68;100.00
51972;BME280;37991;49.662;10.060;2022-11-24T10:29:58;98945.41;;;7.71;100.00
51972;BME280;37991;49.662;10.060;2022-11-24T10:32:36;98945.94;;;7.76;100.00
51972;BME280;37991;49.662;10.060;2022-11-24T10:35:14;98946.78;;;7.76;100.00
51972;BME280;37991;49.662;10.060;2022-11-24T10:37:47;98946.38;;;7.82;100.00
51972;BME280;37991;49.662;10.060;2022-11-24T10:42:57;98940.13;;;7.85;100.00
51972;BME280;37991;49.662;10.060;2022-11-24T10:45:26;98935.63;;;7.87;100.00
51972;BME280;37991;49.662;10.060;2022-11-24T10:47:51;98931.16;;;7.89;100.00
51972;BME280;37991;49.662;10.060;2022-11-24T10:50:30;98936.38;;;7.89;100.00
51972;BME280;37991;49.662;10.060;2022-11-24T10:53:03;98938.78;;;7.92;100.00
51972;BME280;37991;49.662;10.060;2022-11-24T10:56:04;98938.16;;;7.88;100.00
51972;BME280;37991;49.662;10.060;2022-11-24T10:58:34;98930.53;;;7.85;100.00
51972;BME280;37991;49.662;10.060;2022-11-24T11:01:18;98936.66;;;7.84;100.00
51972;BME280;37991;49.662;10.060;2022-11-24T11:03:55;98931.75;;;7.80;100.00
51972;BME280;37991;49.662;10.060;2022-11-24T11:06:28;98929.03;;;7.81;100.00
51972;BME280;37991;49.662;10.060;2022-11-24T11:11:33;98928.13;;;7.82;100.00
51972;BME280;37991;49.662;10.060;2022-11-24T11:14:00;98927.53;;;7.91;100.00
51972;BME280;37991;49.662;10.060;2022-11-24T11:18:56;98944.03;;;8.05;100.00
51972;BME280;37991;49.662;10.060;2022-11-24T11:21:36;98943.72;;;8.09;100.00
51972;BME280;37991;49.662;10.060;2022-11-24T11:24:05;98937.34;;;8.13;100.00
51972;BME280;37991;49.662;10.060;2022-11-24T11:26:37;98935.28;;;8.19;100.00
51972;BME280;37991;49.662;10.060;2022-11-24T11:31:33;98939.34;;;8.23;100.00
51972;BME280;37991;49.662;10.060;2022-11-24T11:34:26;98939.06;;;8.27;100.00
51972;BME280;37991;49.662;10.060;2022-11-24T11:36:55;98942.94;;;8.34;100.00
51972;BME280;37991;49.662;10.060;2022-11-24T11:39:32;98939.28;;;8.37;100.00
51972;BME280;37991;49.662;10.060;2022-11-24T11:44:40;98938.47;;;8.36;100.00
51972;BME280;37991;49.662;10.060;2022-11-24T11:47:20;98946.63;;;8.45;100.00
51972;BME280;37991;49.662;10.060;2022-11-24T11:49:48;98944.34;;;8.40;99.93
51972;BME280;37991;49.662;10.060;2022-11-24T11:52:30;98942.44;;;8.42;99.95
51972;BME280;37991;49.662;10.060;2022-11-24T11:55:25;98942.66;;;8.52;99.77
51972;BME280;37991;49.662;10.060;2022-11-24T11:58:36;98947.66;;;8.55;99.59
51972;BME280;37991;49.662;10.060;2022-11-24T12:00:49;98955.63;;;8.53;98.87
51972;BME280;37991;49.662;10.060;2022-11-24T12:06:52;98945.91;;;8.55;99.95
51972;BME280;37991;49.662;10.060;2022-11-24T12:09:22;98943.50;;;8.52;99.25
51972;BME280;37991;49.662;10.060;2022-11-24T12:14:55;98957.59;;;8.63;96.66
51972;BME280;37991;49.662;10.060;2022-11-24T12:26:01;98979.75;;;8.82;96.16
51972;BME280;37991;49.662;10.060;2022-11-24T12:28:39;98982.88;;;8.88;93.64
51972;BME280;37991;49.662;10.060;2022-11-24T12:31:38;98990.59;;;8.89;93.08
51972;BME280;37991;49.662;10.060;2022-11-24T12:37:05;98985.28;;;8.91;94.46
51972;BME280;37991;49.662;10.060;2022-11-24T12:39:52;98993.34;;;8.88;96.14
51972;BME280;37991;49.662;10.060;2022-11-24T12:42:34;98995.31;;;8.84;96.65
51972;BME280;37991;49.662;10.060;2022-11-24T12:50:21;99007.72;;;8.80;95.35
51972;BME280;37991;49.662;10.060;2022-11-24T12:53:14;99012.75;;;8.71;95.19
51972;BME280;37991;49.662;10.060;2022-11-24T12:55:42;99012.66;;;8.72;95.64
51972;BME280;37991;49.662;10.060;2022-11-24T13:06:32;99024.13;;;8.70;96.07
51972;BME280;37991;49.662;10.060;2022-11-24T13:09:06;99020.50;;;8.72;96.35
51972;BME280;37991;49.662;10.060;2022-11-24T13:11:41;99024.97;;;8.70;95.58
51972;BME280;37991;49.662;10.060;2022-11-24T13:16:54;99027.28;;;8.75;96.92
51972;BME280;37991;49.662;10.060;2022-11-24T13:19:23;99030.41;;;8.80;96.79
51972;BME280;37991;49.662;10.060;2022-11-24T13:21:59;99035.22;;;8.73;96.71
51972;BME280;37991;49.662;10.060;2022-11-24T13:24:28;99030.19;;;8.70;96.78
51972;BME280;37991;49.662;10.060;2022-11-24T13:29:43;99031.69;;;8.74;97.41
51972;BME280;37991;49.662;10.060;2022-11-24T13:39:51;99046.59;;;8.72;95.82
51972;BME280;37991;49.662;10.060;2022-11-24T13:42:18;99046.50;;;8.74;95.89
51972;BME280;37991;49.662;10.060;2022-11-24T13:44:48;99043.59;;;8.78;96.08
51972;BME280;37991;49.662;10.060;2022-11-24T13:47:32;99045.56;;;8.75;95.57
51972;BME280;37991;49.662;10.060;2022-11-24T13:49:58;99057.13;;;8.71;95.74
51972;BME280;37991;49.662;10.060;2022-11-24T13:57:52;99061.53;;;8.70;97.14
51972;BME280;37991;49.662;10.060;2022-11-24T14:00:24;99067.59;;;8.71;97.56
51972;BME280;37991;49.662;10.060;2022-11-24T14:02:52;99063.94;;;8.73;97.87
51972;BME280;37991;49.662;10.060;2022-11-24T14:05:21;99064.47;;;8.66;97.93
51972;BME280;37991;49.662;10.060;2022-11-24T14:07:49;99063.41;;;8.55;99.20
51972;BME280;37991;49.662;10.060;2022-11-24T14:10:32;99066.03;;;8.55;99.28